createdAt,value
2023-01-30T00:01:14.086Z,57.93
2023-01-30T00:03:41.036Z,54.70
2023-01-30T00:06:07.830Z,59.80
2023-01-30T00:08:34.668Z,53.73
2023-01-30T00:11:05.451Z,49.57
2023-01-30T00:13:32.706Z,56.30
2023-01-30T00:15:59.490Z,54.57
2023-01-30T00:18:26.409Z,57.63
2023-01-30T00:21:00.151Z,54.77
2023-01-30T00:23:27.812Z,52.07
2023-01-30T00:25:54.905Z,49.10
2023-01-30T00:28:21.739Z,51.77
2023-01-30T00:30:49.579Z,53.67
2023-01-30T00:33:16.953Z,49.37
2023-01-30T00:35:45.975Z,52.13
2023-01-30T00:38:13.905Z,50.87
2023-01-30T00:40:42.043Z,49.63
2023-01-30T00:43:29.647Z,48.60
2023-01-30T00:46:15.138Z,50.23
2023-01-30T00:48:42.045Z,50.30
2023-01-30T00:51:08.949Z,51.23
2023-01-30T00:53:35.934Z,48.47
2023-01-30T00:56:02.681Z,46.97
2023-01-30T00:58:29.632Z,45.63
2023-01-30T01:00:56.559Z,47.20
2023-01-30T01:03:23.518Z,44.07
2023-01-30T01:05:50.359Z,43.10
2023-01-30T01:08:17.624Z,41.97
2023-01-30T01:10:44.509Z,44.80
2023-01-30T01:13:11.263Z,41.10
2023-01-30T01:15:38.515Z,40.67
2023-01-30T01:18:05.555Z,41.00
2023-01-30T01:20:32.447Z,45.47
2023-01-30T01:22:59.257Z,42.83
2023-01-30T01:25:26.627Z,41.63
2023-01-30T01:27:54.450Z,44.53
2023-01-30T01:30:21.346Z,38.97
2023-01-30T01:32:48.109Z,44.70
2023-01-30T01:35:15.339Z,48.47
2023-01-30T01:37:42.342Z,42.57
2023-01-30T01:40:30.856Z,43.63
2023-01-30T01:42:57.631Z,47.37
2023-01-30T01:45:25.053Z,43.90
2023-01-30T01:47:58.081Z,38.97
2023-01-30T01:50:27.142Z,39.23
2023-01-30T01:52:56.336Z,39.03
2023-01-30T01:55:23.975Z,38.43
2023-01-30T01:57:54.463Z,38.17
2023-01-30T02:00:23.848Z,39.67
2023-01-30T02:03:17.150Z,35.83
2023-01-30T02:05:47.327Z,37.07
2023-01-30T02:08:19.158Z,40.63
2023-01-30T02:10:52.057Z,39.67
2023-01-30T02:13:19.174Z,37.73
2023-01-30T02:15:47.705Z,37.07
2023-01-30T02:18:14.789Z,38.90
2023-01-30T02:20:50.750Z,36.80
2023-01-30T02:23:17.546Z,39.47
2023-01-30T02:25:51.070Z,38.73
2023-01-30T02:28:26.744Z,40.17
2023-01-30T02:31:09.331Z,35.30
2023-01-30T02:33:42.082Z,40.40
2023-01-30T02:36:09.608Z,39.57
2023-01-30T02:39:08.799Z,36.23
2023-01-30T02:41:41.757Z,37.07
2023-01-30T02:44:17.415Z,33.30
2023-01-30T02:46:55.149Z,31.10
2023-01-30T02:49:34.905Z,30.77
2023-01-30T02:52:02.989Z,31.07
2023-01-30T02:54:29.823Z,30.57
2023-01-30T02:57:00.602Z,36.07
2023-01-30T02:59:33.513Z,27.43
2023-01-30T03:02:17.047Z,30.97
2023-01-30T03:04:47.008Z,30.80
2023-01-30T03:07:25.278Z,28.83
2023-01-30T03:09:53.023Z,29.60
2023-01-30T03:12:23.261Z,24.97
2023-01-30T03:14:50.540Z,28.47
2023-01-30T03:17:18.490Z,26.60
2023-01-30T03:19:45.587Z,27.37
2023-01-30T03:22:12.569Z,30.47
2023-01-30T03:24:39.460Z,30.87
2023-01-30T03:27:08.943Z,29.03
2023-01-30T03:29:36.721Z,30.80
2023-01-30T03:32:03.685Z,28.60
2023-01-30T03:34:30.760Z,28.13
2023-01-30T03:36:57.657Z,29.20
2023-01-30T03:39:25.017Z,30.23
2023-01-30T03:41:53.028Z,27.53
2023-01-30T03:44:20.229Z,30.07
2023-01-30T03:46:47.182Z,28.67
2023-01-30T03:49:13.994Z,25.93
2023-01-30T03:51:41.691Z,29.37
2023-01-30T03:54:08.506Z,27.47
2023-01-30T03:56:35.486Z,31.73
2023-01-30T03:59:02.369Z,28.37
2023-01-30T04:01:37.570Z,30.43
2023-01-30T04:04:05.264Z,29.20
2023-01-30T04:06:31.991Z,27.57
2023-01-30T04:08:58.981Z,31.17
2023-01-30T04:11:47.221Z,25.40
2023-01-30T04:14:14.597Z,28.63
2023-01-30T04:17:01.279Z,27.57
2023-01-30T04:19:48.483Z,26.23
2023-01-30T04:22:15.470Z,26.70
2023-01-30T04:24:42.687Z,29.13
2023-01-30T04:27:09.736Z,23.67
2023-01-30T04:29:42.675Z,25.53
2023-01-30T04:32:11.518Z,28.80
2023-01-30T04:34:39.300Z,24.93
2023-01-30T04:37:06.179Z,25.20
2023-01-30T04:39:32.983Z,24.83
2023-01-30T04:41:59.974Z,25.13
2023-01-30T04:44:27.359Z,23.93
2023-01-30T04:47:20.298Z,24.00
2023-01-30T04:49:47.244Z,24.33
2023-01-30T04:52:15.697Z,24.57
2023-01-30T04:54:42.560Z,26.57
2023-01-30T04:57:10.325Z,24.10
2023-01-30T04:59:37.223Z,26.47
2023-01-30T05:02:09.197Z,26.77
2023-01-30T05:04:36.031Z,21.70
2023-01-30T05:07:03.147Z,25.70
2023-01-30T05:09:30.070Z,24.80
2023-01-30T05:11:56.819Z,27.23
2023-01-30T05:14:23.728Z,24.70
2023-01-30T05:16:50.580Z,23.87
2023-01-30T05:19:17.542Z,28.10
2023-01-30T05:21:44.561Z,21.60
2023-01-30T05:24:11.418Z,25.03
2023-01-30T05:26:38.304Z,26.90
2023-01-30T05:29:05.208Z,23.60
2023-01-30T05:31:32.073Z,25.30
2023-01-30T05:33:58.816Z,26.77
2023-01-30T05:36:25.750Z,26.37
2023-01-30T05:38:52.670Z,24.37
2023-01-30T05:41:19.585Z,25.37
2023-01-30T05:43:49.388Z,27.70
2023-01-30T05:46:16.151Z,22.03
2023-01-30T05:48:43.069Z,27.63
2023-01-30T05:51:20.409Z,24.33
2023-01-30T05:53:47.484Z,27.67
2023-01-30T05:56:14.666Z,25.07
2023-01-30T05:58:44.329Z,30.20
2023-01-30T06:01:12.778Z,22.30
2023-01-30T06:03:39.686Z,24.30
2023-01-30T06:06:06.950Z,27.13
2023-01-30T06:08:34.337Z,25.10
2023-01-30T06:11:02.071Z,24.47
2023-01-30T06:13:29.086Z,24.03
2023-01-30T06:15:56.041Z,26.07
2023-01-30T06:18:23.106Z,31.47
2023-01-30T06:20:50.589Z,27.67
2023-01-30T06:23:17.737Z,25.77
2023-01-30T06:25:45.600Z,22.83
2023-01-30T06:28:12.803Z,25.40
2023-01-30T06:30:39.962Z,28.43
2023-01-30T06:33:07.319Z,25.57
2023-01-30T06:35:34.359Z,23.97
2023-01-30T06:38:01.854Z,27.30
2023-01-30T06:40:28.582Z,25.50
2023-01-30T06:42:55.404Z,24.40
2023-01-30T06:45:22.173Z,25.08
2023-01-30T06:47:50.155Z,25.17
2023-01-30T06:50:18.110Z,23.57
2023-01-30T06:52:45.726Z,23.90
2023-01-30T06:55:13.597Z,23.83
2023-01-30T06:57:40.896Z,25.70
2023-01-30T07:00:08.817Z,27.67
2023-01-30T07:02:35.761Z,23.60
2023-01-30T07:05:03.130Z,22.90
2023-01-30T07:07:30.639Z,26.10
2023-01-30T07:10:07.312Z,25.70
2023-01-30T07:12:35.500Z,24.97
2023-01-30T07:15:02.247Z,23.80
2023-01-30T07:17:29.085Z,30.00
2023-01-30T07:19:55.953Z,25.53
2023-01-30T07:22:22.776Z,22.70
2023-01-30T07:24:49.550Z,25.70
2023-01-30T07:27:17.252Z,23.50
2023-01-30T07:29:44.094Z,24.17
2023-01-30T07:32:15.173Z,23.43
2023-01-30T07:34:42.233Z,25.13
2023-01-30T07:37:09.021Z,22.83
2023-01-30T07:39:36.367Z,23.10
2023-01-30T07:42:03.642Z,24.93
2023-01-30T07:44:30.582Z,23.60
2023-01-30T07:46:57.531Z,21.67
2023-01-30T07:49:24.459Z,29.83
2023-01-30T07:51:51.198Z,26.23
2023-01-30T07:54:18.567Z,24.43
2023-01-30T07:56:45.589Z,26.63
2023-01-30T07:59:12.630Z,29.07
2023-01-30T08:01:39.491Z,23.33
2023-01-30T08:04:06.349Z,24.03
2023-01-30T08:06:37.296Z,23.40
2023-01-30T08:09:04.186Z,20.20
2023-01-30T08:11:31.174Z,24.37
2023-01-30T08:13:57.963Z,24.87
2023-01-30T08:16:24.874Z,23.50
2023-01-30T08:18:51.659Z,22.80
2023-01-30T08:21:18.514Z,22.63
2023-01-30T08:23:45.897Z,25.03
2023-01-30T08:26:12.913Z,32.93
2023-01-30T08:28:39.761Z,26.20
2023-01-30T08:31:11.158Z,23.83
2023-01-30T08:33:38.163Z,26.17
2023-01-30T08:36:05.170Z,22.20
2023-01-30T08:38:32.055Z,21.23
2023-01-30T08:40:59.636Z,27.83
2023-01-30T08:43:26.686Z,24.67
2023-01-30T08:45:54.786Z,26.00
2023-01-30T08:48:21.725Z,28.80
2023-01-30T08:50:51.132Z,22.73
2023-01-30T08:53:18.024Z,32.73
2023-01-30T08:55:45.231Z,28.13
2023-01-30T08:58:12.088Z,27.60
2023-01-30T09:00:40.011Z,25.50
2023-01-30T09:03:06.824Z,27.80
2023-01-30T09:05:33.912Z,30.07
2023-01-30T09:08:00.829Z,31.63
2023-01-30T09:10:27.973Z,31.17
2023-01-30T09:12:54.991Z,33.87
2023-01-30T09:15:21.794Z,32.37
2023-01-30T09:17:48.536Z,30.47
2023-01-30T09:20:15.704Z,31.97
2023-01-30T09:22:42.502Z,31.97
2023-01-30T09:25:09.499Z,42.20
2023-01-30T09:27:37.225Z,33.53
2023-01-30T09:30:04.489Z,32.60
2023-01-30T09:32:31.361Z,31.30
2023-01-30T09:34:58.191Z,32.47
2023-01-30T09:37:25.097Z,28.63
2023-01-30T09:39:51.862Z,34.77
2023-01-30T09:42:21.454Z,32.47
2023-01-30T09:45:07.104Z,28.90
2023-01-30T09:47:52.490Z,37.03
2023-01-30T09:50:38.748Z,35.27
2023-01-30T09:53:13.059Z,36.50
2023-01-30T09:55:42.198Z,33.40
2023-01-30T09:58:16.884Z,32.53
2023-01-30T10:00:44.033Z,36.17
2023-01-30T10:03:12.594Z,32.30
2023-01-30T10:05:56.731Z,30.97
2023-01-30T10:08:33.630Z,30.00
2023-01-30T10:11:10.853Z,29.17
2023-01-30T10:13:44.032Z,34.10
2023-01-30T10:16:35.382Z,38.63
2023-01-30T10:19:34.614Z,38.03
2023-01-30T10:22:32.269Z,32.70
2023-01-30T10:25:14.527Z,34.93
2023-01-30T10:27:47.963Z,39.23
2023-01-30T10:30:14.815Z,35.93
2023-01-30T10:33:02.976Z,34.27
2023-01-30T10:35:35.994Z,37.73
2023-01-30T10:38:21.213Z,42.87
2023-01-30T10:40:59.938Z,34.70
2023-01-30T10:43:31.811Z,33.00
2023-01-30T10:46:10.849Z,33.63
2023-01-30T10:48:46.369Z,33.10
2023-01-30T10:51:25.911Z,37.10
2023-01-30T10:53:58.755Z,38.80
2023-01-30T10:56:41.503Z,37.17
2023-01-30T10:59:26.980Z,33.70
2023-01-30T11:02:17.143Z,35.00
2023-01-30T11:04:58.581Z,35.63
2023-01-30T11:07:26.124Z,33.07
2023-01-30T11:09:52.940Z,33.70
2023-01-30T11:12:19.759Z,34.93
2023-01-30T11:14:53.397Z,31.87
2023-01-30T11:17:21.384Z,34.27
2023-01-30T11:19:58.100Z,32.83
2023-01-30T11:22:28.435Z,32.10
2023-01-30T11:25:02.901Z,36.30
2023-01-30T11:27:30.969Z,34.17
2023-01-30T11:30:04.245Z,32.83
2023-01-30T11:32:31.060Z,32.87
2023-01-30T11:35:18.071Z,32.23
2023-01-30T11:37:45.205Z,35.70
2023-01-30T11:40:18.887Z,30.80
2023-01-30T11:42:46.978Z,34.10
2023-01-30T11:45:20.366Z,30.43
2023-01-30T11:47:57.684Z,29.73
2023-01-30T11:50:32.078Z,30.50
2023-01-30T11:53:03.011Z,31.50
2023-01-30T11:55:33.425Z,28.03
2023-01-30T11:58:01.065Z,32.53
2023-01-30T12:00:37.394Z,32.60
2023-01-30T12:03:06.136Z,25.33
2023-01-30T12:05:42.921Z,27.27
2023-01-30T12:08:15.021Z,25.77
2023-01-30T12:10:43.555Z,25.37
2023-01-30T12:13:22.821Z,31.17
2023-01-30T12:15:58.284Z,26.67
2023-01-30T12:18:33.476Z,28.10
2023-01-30T12:21:00.252Z,27.43
2023-01-30T12:23:30.052Z,24.10
2023-01-30T12:26:01.329Z,21.60
2023-01-30T12:28:33.144Z,22.97
2023-01-30T12:31:12.291Z,16.87
2023-01-30T12:33:39.220Z,16.37
2023-01-30T12:36:09.088Z,15.37
2023-01-30T12:38:48.305Z,15.90
2023-01-30T12:41:17.881Z,16.77
2023-01-30T12:43:44.712Z,16.37
2023-01-30T12:46:17.616Z,16.20
2023-01-30T12:48:48.876Z,15.73
2023-01-30T12:51:51.524Z,15.13
2023-01-30T12:54:20.249Z,14.90
2023-01-30T12:57:02.200Z,16.77
2023-01-30T12:59:29.100Z,15.90
2023-01-30T13:02:14.386Z,13.07
2023-01-30T13:05:07.437Z,15.93
2023-01-30T13:07:43.519Z,16.73
2023-01-30T13:10:10.414Z,21.90
2023-01-30T13:12:55.262Z,14.00
2023-01-30T13:15:25.090Z,14.47
2023-01-30T13:18:00.181Z,17.67
2023-01-30T13:20:50.192Z,17.07
2023-01-30T13:23:30.787Z,16.50
2023-01-30T13:26:01.757Z,16.97
2023-01-30T13:28:32.139Z,14.00
2023-01-30T13:31:00.541Z,17.67
2023-01-30T13:33:30.953Z,13.73
2023-01-30T13:36:08.305Z,12.83
2023-01-30T13:38:36.727Z,15.70
2023-01-30T13:41:04.154Z,12.80
2023-01-30T13:43:34.821Z,18.53
2023-01-30T13:46:03.406Z,15.90
2023-01-30T13:48:39.619Z,13.17
2023-01-30T13:51:14.069Z,13.67
2023-01-30T13:53:40.886Z,13.47
2023-01-30T13:56:16.223Z,17.73
2023-01-30T13:58:56.706Z,15.57
2023-01-30T14:01:24.648Z,15.50
2023-01-30T14:03:51.558Z,17.33
2023-01-30T14:06:31.199Z,17.10
2023-01-30T14:09:00.999Z,18.37
2023-01-30T14:11:34.364Z,17.17
2023-01-30T14:14:01.288Z,15.00
2023-01-30T14:16:41.733Z,14.13
2023-01-30T14:19:27.270Z,14.70
2023-01-30T14:21:56.346Z,13.37
2023-01-30T14:24:27.695Z,10.77
2023-01-30T14:26:54.528Z,11.80
2023-01-30T14:29:42.667Z,10.23
2023-01-30T14:32:13.013Z,9.90
2023-01-30T14:34:39.954Z,13.53
2023-01-30T14:37:25.147Z,12.17
2023-01-30T14:39:53.290Z,10.47
2023-01-30T14:42:20.899Z,11.40
2023-01-30T14:44:57.012Z,13.50
2023-01-30T14:47:34.852Z,9.20
2023-01-30T14:50:18.524Z,11.33
2023-01-30T14:52:47.220Z,8.87
2023-01-30T14:55:18.846Z,11.87
2023-01-30T14:58:05.101Z,11.90
2023-01-30T15:00:40.215Z,9.50
2023-01-30T15:03:09.589Z,11.33
2023-01-30T15:05:42.740Z,9.97
2023-01-30T15:08:12.887Z,15.17
2023-01-30T15:11:01.788Z,10.53
2023-01-30T15:13:28.620Z,12.60
2023-01-30T15:16:14.073Z,15.10
2023-01-30T15:19:03.752Z,29.03
2023-01-30T15:21:37.418Z,13.90
2023-01-30T15:24:08.195Z,13.67
2023-01-30T15:26:41.005Z,12.13
2023-01-30T15:29:24.327Z,20.43
2023-01-30T15:32:01.327Z,28.57
2023-01-30T15:34:29.755Z,18.90
2023-01-30T15:36:56.540Z,11.13
2023-01-30T15:39:24.625Z,16.50
2023-01-30T15:41:57.350Z,20.40
2023-01-30T15:44:24.086Z,16.33
2023-01-30T15:46:50.938Z,63.13
2023-01-30T15:49:36.597Z,89.00
2023-01-30T15:52:04.511Z,53.83
2023-01-30T15:54:31.464Z,49.50
2023-01-30T15:56:58.918Z,50.77
2023-01-30T15:59:34.809Z,39.80
2023-01-30T16:02:24.432Z,27.60
2023-01-30T16:05:03.881Z,14.80
2023-01-30T16:07:31.047Z,13.57
2023-01-30T16:10:07.185Z,15.30
2023-01-30T16:12:36.648Z,22.47
2023-01-30T16:15:18.772Z,22.03
2023-01-30T16:17:50.613Z,21.63
2023-01-30T16:20:18.075Z,21.97
2023-01-30T16:22:46.552Z,22.40
2023-01-30T16:25:16.460Z,31.70
2023-01-30T16:27:48.501Z,28.40
2023-01-30T16:30:21.003Z,14.80
2023-01-30T16:32:48.007Z,20.87
2023-01-30T16:35:27.500Z,22.07
2023-01-30T16:37:56.423Z,19.70
2023-01-30T16:40:34.162Z,21.07
2023-01-30T16:43:19.938Z,21.00
2023-01-30T16:45:52.643Z,21.63
2023-01-30T16:48:23.591Z,25.57
2023-01-30T16:51:04.715Z,23.93
2023-01-30T16:53:33.044Z,16.43
2023-01-30T16:56:10.942Z,15.43
2023-01-30T16:58:38.785Z,15.67
2023-01-30T17:01:07.314Z,14.33
2023-01-30T17:03:40.635Z,15.87
2023-01-30T17:06:19.435Z,13.47
2023-01-30T17:08:46.832Z,14.57
2023-01-30T17:11:32.255Z,16.63
2023-01-30T17:14:11.190Z,14.67
2023-01-30T17:16:39.401Z,12.33
2023-01-30T17:19:06.369Z,14.63
2023-01-30T17:21:37.282Z,14.67
2023-01-30T17:24:05.446Z,13.20
2023-01-30T17:26:32.646Z,12.40
2023-01-30T17:28:59.778Z,14.40
2023-01-30T17:31:27.231Z,21.43
2023-01-30T17:33:54.183Z,18.07
2023-01-30T17:36:24.361Z,18.63
2023-01-30T17:38:51.270Z,19.40
2023-01-30T17:41:18.036Z,18.03
2023-01-30T17:43:44.848Z,22.60
2023-01-30T17:46:12.526Z,21.93
2023-01-30T17:48:39.413Z,21.83
2023-01-30T17:51:06.189Z,19.17
2023-01-30T17:53:33.845Z,21.50
2023-01-30T17:56:00.791Z,35.10
2023-01-30T17:58:27.696Z,22.83
2023-01-30T18:00:54.445Z,17.97
2023-01-30T18:03:21.323Z,16.80
2023-01-30T18:05:48.140Z,16.43
2023-01-30T18:08:14.951Z,20.13
2023-01-30T18:10:41.775Z,26.87
2023-01-30T18:13:08.571Z,36.00
2023-01-30T18:15:35.415Z,21.60
2023-01-30T18:18:02.208Z,13.73
2023-01-30T18:20:29.003Z,14.47
2023-01-30T18:22:55.781Z,15.53
2023-01-30T18:25:22.739Z,16.83
2023-01-30T18:27:49.513Z,15.80
2023-01-30T18:30:17.674Z,18.07
2023-01-30T18:32:52.385Z,13.73
2023-01-30T18:35:20.229Z,12.33
2023-01-30T18:37:46.969Z,21.90
2023-01-30T18:40:15.311Z,19.17
2023-01-30T18:42:42.281Z,13.90
2023-01-30T18:45:09.315Z,12.40
2023-01-30T18:47:36.192Z,11.87
2023-01-30T18:50:03.111Z,16.13
2023-01-30T18:52:29.987Z,12.83
2023-01-30T18:54:56.780Z,13.90
2023-01-30T18:57:23.672Z,11.17
2023-01-30T18:59:50.520Z,12.00
2023-01-30T19:02:17.312Z,14.00
2023-01-30T19:04:44.229Z,15.20
2023-01-30T19:07:11.393Z,16.77
2023-01-30T19:09:38.231Z,11.77
2023-01-30T19:12:23.944Z,13.40
2023-01-30T19:14:50.962Z,9.97
2023-01-30T19:17:17.763Z,13.33
2023-01-30T19:19:46.235Z,14.50
2023-01-30T19:22:13.145Z,12.17
2023-01-30T19:24:39.880Z,16.23
2023-01-30T19:27:08.012Z,12.60
2023-01-30T19:29:34.788Z,11.93
2023-01-30T19:32:01.767Z,19.47
2023-01-30T19:34:28.971Z,14.83
2023-01-30T19:36:55.706Z,13.67
2023-01-30T19:39:22.629Z,13.23
2023-01-30T19:41:49.363Z,12.33
2023-01-30T19:44:16.161Z,12.33
2023-01-30T19:46:43.323Z,13.13
2023-01-30T19:49:10.963Z,12.20
2023-01-30T19:51:37.901Z,13.60
2023-01-30T19:54:06.258Z,15.73
2023-01-30T19:56:34.036Z,11.87
2023-01-30T19:59:01.458Z,11.57
2023-01-30T20:01:30.666Z,12.30
2023-01-30T20:03:57.819Z,13.13
2023-01-30T20:06:26.805Z,15.80
2023-01-30T20:09:04.938Z,9.30
2023-01-30T20:11:33.271Z,15.07
2023-01-30T20:14:01.522Z,12.40
2023-01-30T20:16:29.841Z,10.90
2023-01-30T20:18:56.618Z,11.57
2023-01-30T20:21:23.550Z,9.90
2023-01-30T20:23:50.365Z,14.03
2023-01-30T20:26:19.800Z,9.80
2023-01-30T20:28:46.745Z,10.83
2023-01-30T20:31:14.871Z,10.77
2023-01-30T20:33:42.209Z,8.03
2023-01-30T20:36:10.367Z,9.60
2023-01-30T20:38:38.098Z,11.20
2023-01-30T20:41:06.106Z,10.17
2023-01-30T20:43:33.535Z,9.37
2023-01-30T20:46:04.642Z,8.40
2023-01-30T20:48:31.515Z,11.10
2023-01-30T20:51:02.231Z,9.23
2023-01-30T20:53:29.004Z,12.33
2023-01-30T20:55:59.332Z,11.27
2023-01-30T20:58:29.571Z,9.43
2023-01-30T21:00:57.204Z,9.83
2023-01-30T21:03:25.543Z,7.73
2023-01-30T21:05:57.114Z,10.73
2023-01-30T21:08:24.412Z,7.77
2023-01-30T21:10:51.211Z,11.00
2023-01-30T21:13:18.037Z,12.73
2023-01-30T21:15:44.872Z,10.77
2023-01-30T21:18:11.777Z,13.60
2023-01-30T21:20:39.079Z,9.10
2023-01-30T21:23:06.066Z,9.63
2023-01-30T21:25:34.825Z,9.67
2023-01-30T21:28:01.664Z,14.20
2023-01-30T21:30:28.569Z,11.03
2023-01-30T21:32:55.703Z,13.60
2023-01-30T21:35:23.343Z,13.93
2023-01-30T21:38:09.379Z,11.30
2023-01-30T21:41:03.133Z,11.50
2023-01-30T21:43:30.527Z,13.70
2023-01-30T21:45:59.263Z,11.73
2023-01-30T21:48:26.231Z,13.30
2023-01-30T21:50:53.273Z,13.10
2023-01-30T21:53:20.450Z,10.03
2023-01-30T21:55:51.485Z,15.83
2023-01-30T21:58:18.723Z,13.27
2023-01-30T22:00:46.530Z,14.43
2023-01-30T22:03:13.392Z,17.07
2023-01-30T22:05:43.348Z,9.57
2023-01-30T22:08:10.288Z,15.40
2023-01-30T22:10:37.887Z,11.13
2023-01-30T22:13:05.297Z,12.73
2023-01-30T22:15:33.946Z,10.37
2023-01-30T22:18:00.800Z,9.53
2023-01-30T22:20:27.691Z,13.63
2023-01-30T22:22:55.034Z,9.73
2023-01-30T22:25:22.791Z,12.77
2023-01-30T22:27:50.324Z,10.93
2023-01-30T22:30:18.372Z,8.57
2023-01-30T22:32:45.380Z,7.50
2023-01-30T22:35:12.422Z,4.97
2023-01-30T22:37:39.573Z,7.63
2023-01-30T22:40:06.604Z,7.10
2023-01-30T22:42:33.492Z,5.43
2023-01-30T22:45:00.240Z,9.10
2023-01-30T22:47:27.153Z,7.90
2023-01-30T22:49:54.083Z,7.80
2023-01-30T22:52:20.937Z,8.03
2023-01-30T22:54:47.682Z,7.00
2023-01-30T22:57:14.624Z,9.10
2023-01-30T22:59:43.441Z,7.87
2023-01-30T23:02:11.160Z,8.37
2023-01-30T23:04:37.939Z,10.10
2023-01-30T23:07:04.827Z,8.93
2023-01-30T23:09:31.909Z,4.10
2023-01-30T23:12:17.324Z,8.33
2023-01-30T23:14:45.198Z,7.77
2023-01-30T23:17:30.757Z,11.17
2023-01-30T23:20:03.844Z,10.33
2023-01-30T23:22:31.131Z,9.23
2023-01-30T23:24:57.889Z,9.37
2023-01-30T23:27:25.413Z,9.30
2023-01-30T23:29:52.689Z,9.83
2023-01-30T23:32:20.432Z,9.93
2023-01-30T23:34:48.281Z,8.03
2023-01-30T23:37:15.419Z,9.33
2023-01-30T23:39:42.444Z,10.63
2023-01-30T23:42:09.453Z,8.67
2023-01-30T23:44:36.433Z,6.47
2023-01-30T23:47:03.651Z,8.03
2023-01-30T23:49:30.903Z,7.37
2023-01-30T23:51:57.769Z,8.83
2023-01-30T23:54:25.453Z,10.60
2023-01-30T23:56:54.252Z,11.63
2023-01-30T23:59:20.971Z,16.00
